Tiempo atmosférico en la estación meteorológica de Vilassar De Dalt, Barcelona (60 m.)



Fecha
DESCASC
Temp. máxima en grados centígrados (hora)
DESCASC
Temp. mínima en grados centígrados (hora)
DESCASC
Temp. media en grados centígrados
DESCASC
Racha de viento máxima en m/sg (hora)
DESCASC
Velocidad máxima media en intervalos de 10 minutos(hora)
DESCASC
Precipitaciones diarias en mm
DESCASC
Precipitaciones de 00:00 a 06:00 en mm
DESCASC
Precipitaciones de 06:00 a 12:00 en mm
DESCASC
Precipitaciones de 12:00 a 18:00 en mm
DESCASC
Precipitaciones de 18:00 a 24:00 en mm
DESCASC
24-05-2020 24.5 (12:20) 17.9 (23:20) 21.2 5.83 (19:40) 3.61 (19:50) 0 0 0 0 0
23-05-2020 27.9 (09:10) 17.1 (04:40) 22.5 10.28 (19:10) 6.11 (18:10) 0 0 0 0 0
22-05-2020 28.6 (15:00) 16.9 (05:30) 22.8 5.83 (18:50) 3.33 (18:50) 0 0 0 0 0
21-05-2020 29.5 (15:40) 17.2 (00:00) 23.4 7.78 (15:30) 4.72 (15:30) 0 0 0 0 0
20-05-2020 -- (--) -- (--) -- -- (--) -- (--) -- 0 0 -- 0
19-05-2020 -- (--) -- (--) -- -- (--) -- (--) -- 0 0 0 --
18-05-2020 25 (10:20) 14.4 (00:00) 19.7 5.28 (16:00) 2.78 (15:50) 0 0 0 0 0
17-05-2020 24.5 (12:40) 15.4 (00:00) 19.9 7.5 (12:50) 4.72 (12:50) 0 0 0 0 0
16-05-2020 23.9 (12:00) 15.9 (00:00) 19.9 8.06 (07:10) 4.72 (14:00) 1 0 0 0 1
15-05-2020 22.3 (11:40) 13 (00:00) 17.6 6.39 (17:50) 4.17 (17:50) 0.2 0.2 0 0 0
14-05-2020 19.5 (09:00) 13.6 (00:00) 16.6 8.06 (13:50) 4.72 (16:00) 7 0 0 3.6 3.4
13-05-2020 24.7 (13:20) 15.4 (00:00) 20.1 11.39 (15:30) 5.56 (16:20) 1 1 0 0 0
12-05-2020 20.3 (10:00) 14.3 (00:00) 17.3 8.33 (17:50) 5 (19:10) 0 0 0 0 0
11-05-2020 26 (17:20) 14.7 (00:00) 20.3 15.83 (16:00) 8.89 (15:50) 0 0 0 0 0
10-05-2020 20.9 (18:10) 15 (00:00) 17.9 10.83 (18:40) 5.83 (19:10) 7 3 4 0 0
09-05-2020 20.7 (15:50) 16.3 (00:00) 18.5 7.22 (12:40) 4.17 (12:40) 0.4 0 0 0.2 0.2
08-05-2020 24.7 (11:20) 15.2 (00:00) 20 5 (19:10) 3.06 (19:10) 0 0 0 0 0
07-05-2020 23.5 (09:00) 17.6 (00:00) 20.6 7.78 (11:40) 5 (15:20) 0 0 0 0 0
06-05-2020 26.8 (09:20) 15.2 (00:00) 21 6.11 (15:00) 3.33 (15:00) 0 0 0 0 0
05-05-2020 25.9 (10:40) 16.9 (00:00) 21.4 8.33 (13:20) 5 (13:20) 0 0 0 0 0
04-05-2020 25.3 (14:00) 15 (00:00) 20.1 7.5 (16:20) 4.17 (16:20) 0 0 0 0 0
03-05-2020 24.8 (09:20) 14.9 (00:00) 19.8 5 (15:20) 3.06 (15:00) 0 0 0 0 0
02-05-2020 25.7 (11:30) 15.3 (00:00) 20.5 6.11 (11:40) 2.78 (16:50) 0 0 0 0 0
01-05-2020 27.9 (16:50) 14 (00:00) 20.9 16.11 (15:20) 8.06 (15:10) 0 0 0 0 0
30-04-2020 25.3 (18:50) 15.3 (00:00) 20.3 14.44 (16:40) 7.78 (15:20) 0 0 0 0 0
29-04-2020 21.8 (13:20) 11.9 (00:00) 16.8 10.56 (18:10) 5.83 (19:30) 0 0 0 0 0
28-04-2020 -- (--) -- (--) -- -- (--) -- (--) -- 1.6 0 -- 0
27-04-2020 21.2 (15:20) 12.3 (00:00) 16.8 6.67 (19:00) 3.61 (12:20) 0 0 0 0 0
26-04-2020 22.1 (11:00) 12.3 (00:00) 17.2 5.56 (15:50) 3.06 (19:20) 0 0 0 0 0

Gráficas

Temp. máximas Temp. mínimas Temp. medias Precipitaciones Rachas de viento máximas Velocidades máximas media en intervalos de 10 minutos

Datos horarios

Fecha y hora oficial Temperatura (ºC) Velocidad del viento (km/h) Dirección del viento Racha (km/h) Dirección de racha Precipitación (mm) Presión (hPa) Tendencia (hPa) Humedad (%)
2020-05-25 23:00:00 18.1 2 Norte 6 Oeste 0 -- -- 81
2020-05-25 22:00:00 18.6 4 Noroeste 5 Noroeste 0 -- -- 80
2020-05-25 21:00:00 19.7 3 Sudoeste 10 Sudoeste 0 -- -- 73
2020-05-25 20:00:00 22.9 4 Sur 13 Sur 0 -- -- 64
2020-05-25 19:00:00 23.2 7 Sur 19 Sur 0 -- -- 62
2020-05-25 18:00:00 23.6 11 Sudoeste 23 Sur 0 -- -- 57
2020-05-25 17:00:00 23.5 13 Sudoeste 25 Sudoeste 0 -- -- 60
2020-05-25 16:00:00 24 15 Sudoeste 26 Sudoeste 0 -- -- 62
2020-05-25 15:00:00 23.8 14 Sudoeste 28 Sudoeste 0 -- -- 58
2020-05-25 14:00:00 24.3 13 Sudoeste 24 Sudoeste 0 -- -- 57
2020-05-25 13:00:00 24.9 10 Sudoeste 19 Sur 0 -- -- 49
2020-05-25 12:00:00 24.8 10 Sur 21 Sur 0 -- -- 54
2020-05-25 11:00:00 25.4 6 Sur 15 Sudoeste 0 -- -- 56
2020-05-25 10:00:00 24.7 5 Sur 10 Sur 0 -- -- 49
2020-05-25 09:00:00 21.7 2 Sur 5 Sudoeste 0 -- -- 61
2020-05-25 08:00:00 21.2 0 Calma 6 Nordeste 0 -- -- 64
2020-05-25 07:00:00 19.7 3 Nordeste 6 Nordeste 0 -- -- 72
2020-05-25 06:00:00 19.1 2 Este 4 Este 0 -- -- 78
2020-05-25 05:00:00 19 0 Calma 8 Este 0 -- -- 80
2020-05-25 04:00:00 19.4 2 Este 4 Este 0 -- -- 79
2020-05-25 03:00:00 19.4 2 Este 4 Este 0 -- -- 78
2020-05-25 02:00:00 19 3 Oeste 5 Noroeste 0 -- -- 80
2020-05-25 01:00:00 19.1 3 Este 5 Este 0 -- -- 79
2020-05-25 00:00:00 18.7 0 Calma 5 Norte 0 -- -- 80
2020-05-24 23:00:00 18.1 3 Norte 6 Noroeste 0 -- -- 81
2020-05-24 22:00:00 18.5 5 Oeste 14 Sudoeste 0 -- -- 80
2020-05-24 21:00:00 19.1 8 Sudoeste 19 Sudoeste 0 -- -- 75
2020-05-24 20:00:00 20.8 12 Sudoeste 21 Sur 0 -- -- 68
2020-05-24 19:00:00 21.2 12 Sudoeste 19 Sudoeste 0 -- -- 66
2020-05-24 18:00:00 23.1 10 Sudoeste 18 Sudoeste 0 -- -- 60
2020-05-24 17:00:00 20.9 7 Sudoeste 16 Sudeste 0 -- -- 65
2020-05-24 16:00:00 23.5 5 Sudeste 14 Sudeste 0 -- -- 58
2020-05-24 15:00:00 21.7 4 Sudeste 14 Sudeste 0 -- -- 65
2020-05-24 14:00:00 20.9 8 Sudeste 19 Este 0 -- -- 66
2020-05-24 13:00:00 23.2 7 Sudeste 19 Este 0 -- -- 60
2020-05-24 12:00:00 24.2 6 Sudeste 17 Sudeste 0 -- -- 58
2020-05-24 11:00:00 21.4 8 Sudeste 13 Sudeste 0 -- -- 69
2020-05-24 10:00:00 21.8 5 Sudeste 12 Sudoeste 0 -- -- 71
2020-05-24 09:00:00 21.2 2 Sur 9 Sur 0 -- -- 75
2020-05-24 08:00:00 20 4 Sudoeste 8 Oeste 0 -- -- 82
2020-05-24 07:00:00 18.7 2 Sudoeste 7 Sudoeste 0 -- -- 85
2020-05-24 06:00:00 18.6 4 Sudoeste 8 Sur 0 -- -- 83
2020-05-24 05:00:00 19 3 Sudeste 10 Sudoeste 0 -- -- 83
2020-05-24 04:00:00 19.3 4 Sudoeste 11 Sur 0 -- -- 83
2020-05-24 03:00:00 19.9 6 Este 10 Este 0 -- -- 85
2020-05-24 02:00:00 20.1 2 Este 5 Norte 0 -- -- 82
2020-05-24 01:00:00 19.6 4 Noroeste 9 Noroeste 0 -- -- 86
2020-05-24 00:00:00 19.6 2 Sudoeste 8 Oeste 0 -- -- 86
2020-05-23 23:00:00 19.8 4 Sur 9 Sur 0 -- -- 85
2020-05-23 22:00:00 20 0 Calma 12 Este 0 -- -- 85
2020-05-23 21:00:00 20.3 6 Nordeste 27 Nordeste 0 -- -- 86
2020-05-23 20:00:00 21.8 14 Este 37 Este 0 -- -- 79
2020-05-23 19:00:00 22.4 17 Este 35 Este 0 -- -- 78
2020-05-23 18:00:00 23.3 19 Este 32 Este 0 -- -- 71
2020-05-23 17:00:00 26.7 9 Sudoeste 21 Sur 0 -- -- 51
2020-05-23 16:00:00 27.5 11 Sudoeste 27 Sudoeste 0 -- -- 42
2020-05-23 15:00:00 26.7 11 Sur 21 Sudoeste 0 -- -- 52
2020-05-23 14:00:00 26.3 10 Sudoeste 22 Sudoeste 0 -- -- 61
2020-05-23 13:00:00 26 11 Sudoeste 21 Sudoeste 0 -- -- 56
2020-05-23 12:00:00 26.8 13 Sudoeste 21 Sudoeste 0 -- -- 49
2020-05-23 11:00:00 26.6 10 Sudoeste 19 Sudoeste 0 -- -- 51
2020-05-23 10:00:00 26.3 10 Sudoeste 15 Sudoeste 0 -- -- 51
2020-05-23 09:00:00 27.7 3 Sur 7 Sur 0 -- -- 45
2020-05-23 08:00:00 23.6 3 Este 5 Este 0 -- -- 55
2020-05-23 07:00:00 17.8 0 Calma 4 Norte 0 -- -- 64
2020-05-23 06:00:00 17.4 2 Nordeste 4 Nordeste 0 -- -- 65
2020-05-23 05:00:00 17.2 0 Calma 4 Noroeste 0 -- -- 70
2020-05-23 04:00:00 17.8 2 Noroeste 5 Noroeste 0 -- -- 71
2020-05-23 03:00:00 17.9 0 Calma 6 Noroeste 0 -- -- 70
2020-05-23 02:00:00 18.3 2 Norte 5 Noroeste 0 -- -- 68
2020-05-23 01:00:00 18.5 2 Noroeste 4 Noroeste 0 -- -- 75
2020-05-23 00:00:00 19 2 Norte 7 Sudoeste 0 -- -- 78
2020-05-22 23:00:00 20.1 0 Calma 9 Sudoeste 0 -- -- 78
2020-05-22 22:00:00 21 5 Sudoeste 10 Sudoeste 0 -- -- 78
2020-05-22 21:00:00 22.3 8 Sudoeste 15 Sudoeste 0 -- -- 71
2020-05-22 20:00:00 25.4 8 Sudoeste 19 Sudoeste 0 -- -- 61
2020-05-22 19:00:00 26 12 Sudoeste 21 Sudoeste 0 -- -- 57
2020-05-22 18:00:00 26.8 11 Sudoeste 20 Sur 0 -- -- 48
2020-05-22 17:00:00 27.4 6 Sur 15 Sudoeste 0 -- -- 51
2020-05-22 16:00:00 27.4 10 Sudoeste 21 Sur 0 -- -- 44
2020-05-22 15:00:00 28.6 11 Sudoeste 19 Sudoeste 0 -- -- 44
2020-05-22 14:00:00 27.1 10 Sudoeste 18 Sudoeste 0 -- -- 54
2020-05-22 13:00:00 27.5 7 Sur 13 Sur 0 -- -- 54
2020-05-22 12:00:00 26.2 4 Sudeste 12 Sudeste 0 -- -- 56
2020-05-22 11:00:00 27.5 4 Sur 10 Sudeste 0 -- -- 54
2020-05-22 10:00:00 26.5 3 Sudeste 6 Este 0 -- -- 61
2020-05-22 09:00:00 23.3 4 Sudeste 7 Sudeste 0 -- -- 68
2020-05-22 08:00:00 24.6 2 Sudoeste 3 Oeste 0 -- -- 60
2020-05-22 07:00:00 18.3 0 Calma 5 Noroeste 0 -- -- 75
2020-05-22 06:00:00 17.3 0 Calma 3 Norte 0 -- -- 82
2020-05-22 05:00:00 17.6 0 Calma 5 Nordeste 0 -- -- 83
2020-05-22 04:00:00 17.7 3 Noroeste 6 Noroeste 0 -- -- 83
2020-05-22 03:00:00 17.7 0 Calma 4 Noroeste 0 -- -- 84
2020-05-22 02:00:00 18.5 0 Calma 3 Nordeste 0 -- -- 83
2020-05-22 01:00:00 18.6 0 Calma 3 Noroeste 0 -- -- 83
2020-05-22 00:00:00 18.9 0 Calma 4 Oeste 0 -- -- 82
2020-05-21 23:00:00 19.6 0 Calma 10 Este 0 -- -- 81
2020-05-21 22:00:00 20.6 6 Este 13 Este 0 -- -- 77
2020-05-21 21:00:00 20.8 8 Este 17 Este 0 -- -- 77
2020-05-21 20:00:00 22.4 12 Este 19 Nordeste 0 -- -- 72
2020-05-21 19:00:00 23 11 Este 24 Sudoeste 0 -- -- 69
2020-05-21 18:00:00 26.8 14 Sudoeste 27 Sudoeste 0 -- -- 54
2020-05-21 17:00:00 27.9 13 Sudoeste 25 Sudoeste 0 -- -- 50
2020-05-21 16:00:00 27.9 14 Sudoeste 28 Sudoeste 0 -- -- 48
2020-05-21 15:00:00 28.5 12 Sudoeste 26 Sudoeste 0 -- -- 42
2020-05-21 14:00:00 28.7 14 Sudoeste 24 Sudoeste 0 -- -- 42
2020-05-21 13:00:00 29 13 Sudoeste 20 Sudoeste 0 -- -- 43
2020-05-21 12:00:00 28.4 8 Sur 14 Sur 0 -- -- 42
2020-05-21 11:00:00 28.7 4 Sur 10 Sudoeste 0 -- -- 45
2020-05-21 10:00:00 27.6 5 Sudoeste 10 Sudoeste 0 -- -- 49
2020-05-21 09:00:00 28.1 4 Sudoeste 6 Oeste 0 -- -- 43
2020-05-21 08:00:00 24.3 4 Oeste 6 Oeste 0 -- -- 58
2020-05-21 07:00:00 17.8 3 Oeste 5 Noroeste 0 -- -- 79
2020-05-21 06:00:00 17.7 2 Oeste 6 Norte 0 -- -- 79
2020-05-21 05:00:00 17.5 0 Calma 5 Nordeste 0 -- -- 81
2020-05-21 04:00:00 17.4 0 Calma 3 Norte 0 -- -- 76
2020-05-21 03:00:00 17.7 2 Oeste 6 Noroeste 0 -- -- 73
2020-05-21 02:00:00 18.1 0 Calma 4 Noroeste 0 -- -- 77
2020-05-21 01:00:00 17.6 0 Calma 3 Este 0 -- -- 83
2020-05-21 00:00:00 18 2 Norte 4 Noroeste 0 -- -- 86
2020-05-20 23:00:00 18.8 3 Sudoeste 9 Oeste 0 -- -- 89
2020-05-20 22:00:00 19.4 3 Sudoeste 8 Sudoeste 0 -- -- 86
2020-05-20 21:00:00 20.3 5 Oeste 7 Oeste 0 -- -- 82
2020-05-20 20:00:00 22.9 3 Sudeste 9 Sudeste 0 -- -- 74
2020-05-20 19:00:00 23.9 4 Sudeste 12 Sudeste 0 -- -- 68
2020-05-20 18:00:00 24.8 6 Sudeste 13 Sur 0 -- -- 62
2020-05-20 17:00:00 26.3 7 Sur 16 Sur 0 -- -- 51
2020-05-20 16:00:00 -- -- -- -- -- -- -- -- --
2020-05-20 15:00:00 25.2 6 Sudeste 13 Sudeste 0 -- -- 56
2020-05-20 14:00:00 26.6 5 Sur 14 Sur 0 -- -- 45
2020-05-20 13:00:00 27 8 Sudoeste 14 Sur 0 -- -- 43
2020-05-20 12:00:00 27 7 Sudoeste 14 Sur 0 -- -- 43
2020-05-20 11:00:00 25.9 4 Sur 9 Este 0 -- -- 49
2020-05-20 10:00:00 26.3 4 Sur 9 Este 0 -- -- 47
2020-05-20 09:00:00 26.6 3 Sudoeste 18 Norte 0 -- -- 43
2020-05-20 08:00:00 24.7 2 Sudoeste 6 Oeste 0 -- -- 51
2020-05-20 07:00:00 18.1 0 Calma 11 Oeste 0 -- -- 63
2020-05-20 06:00:00 17.5 5 Noroeste 8 Noroeste 0 -- -- 70
2020-05-20 05:00:00 17 0 Calma 6 Este 0 -- -- 79
2020-05-20 04:00:00 17.3 0 Calma 4 Sudeste 0 -- -- 80
2020-05-20 03:00:00 17.6 0 Calma 5 Sudeste 0 -- -- 77
2020-05-20 02:00:00 17.1 0 Calma 4 Este 0 -- -- 72
2020-05-20 01:00:00 17.1 0 Calma 4 Noroeste 0 -- -- 72
2020-05-20 00:00:00 -- -- -- -- -- -- -- -- --
2020-05-19 23:00:00 17.7 0 Calma 6 Oeste 0 -- -- 79
2020-05-19 22:00:00 18.7 4 Sudoeste 9 Sudoeste 0 -- -- 85
2020-05-19 21:00:00 19.9 5 Sudoeste 12 Sudoeste 0 -- -- 78
2020-05-19 20:00:00 23.4 6 Sudoeste 12 Sudoeste 0 -- -- 66
2020-05-19 19:00:00 25.7 4 Sur 11 Oeste 0 -- -- 50
2020-05-19 18:00:00 24.2 4 Sudeste 13 Este 0 -- -- 64
2020-05-19 17:00:00 23.7 8 Sudeste 17 Sur 0 -- -- 66
2020-05-19 16:00:00 25.9 9 Sur 14 Sur 0 -- -- 47
2020-05-19 15:00:00 24.8 7 Sur 13 Sur 0 -- -- 55
2020-05-19 14:00:00 24.9 6 Sudeste 14 Sudeste 0 -- -- 53
2020-05-19 13:00:00 25.1 5 Sudeste 15 Este 0 -- -- 52
2020-05-19 12:00:00 22.9 10 Sudeste 17 Sudeste 0 -- -- 65
2020-05-19 11:00:00 23.7 9 Sudeste 17 Norte 0 -- -- 53
2020-05-19 10:00:00 25.9 9 Norte 17 Norte 0 -- -- 42
2020-05-19 09:00:00 25.4 5 Noroeste 17 Norte 0 -- -- 42
2020-05-19 08:00:00 20.8 5 Sudeste 10 Sudeste 0 -- -- 69
2020-05-19 07:00:00 17.1 0 Calma 10 Noroeste 0 -- -- 72
2020-05-19 06:00:00 17.3 3 Noroeste 10 Oeste 0 -- -- 69
2020-05-19 05:00:00 16.4 2 Norte 6 Noroeste 0 -- -- 78
2020-05-19 04:00:00 16.3 2 Sudoeste 10 Este 0 -- -- 81
2020-05-19 03:00:00 17 3 Norte 8 Noroeste 0 -- -- 79
2020-05-19 02:00:00 16.9 0 Calma 6 Noroeste 0 -- -- 81
2020-05-19 01:00:00 17.1 2 Noroeste 5 Nordeste 0 -- -- 85
2020-05-19 00:00:00 17.6 2 Este 9 Este 0 -- -- 86
2020-05-18 23:00:00 17.8 2 Oeste 5 Oeste 0 -- -- 84
2020-05-18 22:00:00 18.3 2 Norte 12 Sudoeste 0 -- -- 84
2020-05-18 21:00:00 19.8 5 Sudoeste 16 Sudoeste 0 -- -- 75
2020-05-18 20:00:00 22 10 Sudoeste 18 Sudoeste 0 -- -- 67
2020-05-18 19:00:00 22.1 8 Sudoeste 15 Sur 0 -- -- 67
2020-05-18 18:00:00 23.4 9 Sur 17 Sudoeste 0 -- -- 66
2020-05-18 17:00:00 24.9 8 Sudoeste 17 Sudoeste 0 -- -- 43
2020-05-18 16:00:00 24.4 9 Sur 19 Sudoeste 0 -- -- 50
2020-05-18 15:00:00 23.2 5 Sudeste 16 Sudeste 0 -- -- 61
2020-05-18 14:00:00 23 5 Sur 15 Este 0 -- -- 63
2020-05-18 13:00:00 22.1 5 Sudeste 15 Este 0 -- -- 65
2020-05-18 12:00:00 22.1 4 Sudeste 15 Sudeste 0 -- -- 67
2020-05-18 11:00:00 22.1 4 Sudeste 13 Sudeste 0 -- -- 66
2020-05-18 10:00:00 24.3 3 Sur 8 Sur 0 -- -- 52
2020-05-18 09:00:00 24 3 Sudoeste 6 Sur 0 -- -- 55
2020-05-18 08:00:00 22.1 2 Sudoeste 6 Noroeste 0 -- -- 62
2020-05-18 07:00:00 14.8 3 Norte 7 Norte 0 -- -- 81
2020-05-18 06:00:00 14.4 4 Oeste 6 Noroeste 0 -- -- 88
2020-05-18 05:00:00 15.5 5 Noroeste 9 Noroeste 0 -- -- 86
2020-05-18 04:00:00 16.2 0 Calma 13 Norte 0 -- -- 85
2020-05-18 03:00:00 15.6 3 Norte 6 Nordeste 0 -- -- 88
2020-05-18 02:00:00 15.6 0 Calma 5 Norte 0 -- -- 87
2020-05-18 01:00:00 16 0 Calma 5 Norte 0 -- -- 85
2020-05-18 00:00:00 16.6 2 Oeste 9 Oeste 0 -- -- 85
2020-05-17 23:00:00 16.5 3 Oeste 5 Oeste 0 -- -- 85
2020-05-17 22:00:00 17.6 2 Sudeste 6 Sudeste 0 -- -- 83
2020-05-17 21:00:00 18.4 4 Este 8 Este 0 -- -- 78
2020-05-17 20:00:00 20.3 5 Sudeste 10 Sur 0 -- -- 68
2020-05-17 19:00:00 22.6 3 Sudeste 10 Sudoeste 0 -- -- 62
2020-05-17 18:00:00 23.2 4 Sur 21 Sudoeste 0 -- -- 59
2020-05-17 17:00:00 21.2 11 Sudoeste 19 Sudoeste 0 -- -- 68
2020-05-17 16:00:00 22.7 10 Sudoeste 21 Sudoeste 0 -- -- 67
2020-05-17 15:00:00 21.1 9 Sudoeste 22 Sudoeste 0 -- -- 63
2020-05-17 14:00:00 20.7 13 Sudoeste 26 Sur 0 -- -- 63
2020-05-17 13:00:00 24.4 12 Sudoeste 27 Sudoeste 0 -- -- 50
2020-05-17 12:00:00 23.7 14 Oeste 26 Oeste 0 -- -- 48
2020-05-17 11:00:00 21.9 5 Sudoeste 12 Sudoeste 0 -- -- 58
2020-05-17 10:00:00 19.4 3 Nordeste 14 Oeste 0 -- -- 68
2020-05-17 09:00:00 17.2 3 Norte 25 Noroeste 0 -- -- 70
2020-05-17 08:00:00 16.6 2 Noroeste 11 Noroeste 0 -- -- 80
2020-05-17 07:00:00 15.9 5 Norte 14 Norte 0 -- -- 77
2020-05-17 06:00:00 15.8 4 Norte 18 Norte 0 -- -- 78
2020-05-17 05:00:00 16.4 6 Norte 16 Nordeste 0 -- -- 76
2020-05-17 04:00:00 16.6 3 Nordeste 9 Nordeste 0 -- -- 78
2020-05-17 03:00:00 16.6 3 Sudoeste 14 Norte 0 -- -- 79
2020-05-17 02:00:00 16.6 5 Norte 9 Sudoeste 0 -- -- 79
2020-05-17 01:00:00 16.4 0 Calma 10 Este 0 -- -- 82
2020-05-17 00:00:00 16.4 3 Sudeste 15 Oeste 0 -- -- 82
2020-05-16 23:00:00 16.4 8 Oeste 12 Noroeste 0 -- -- 81
2020-05-16 22:00:00 15.9 3 Noroeste 6 Noroeste 0.2 -- -- 90
2020-05-16 21:00:00 16.3 3 Oeste 12 Sudeste 0.8 -- -- 87
2020-05-16 20:00:00 18.4 2 Sudeste 14 Sudeste 0 -- -- 72
2020-05-16 19:00:00 19 6 Noroeste 23 Norte 0 -- -- 62
2020-05-16 18:00:00 18.5 3 Sudeste 19 Sudoeste 0 -- -- 69
2020-05-16 17:00:00 18.7 5 Nordeste 18 Oeste 0 -- -- 70
2020-05-16 16:00:00 20.7 9 Norte 24 Norte 0 -- -- 62
2020-05-16 15:00:00 23.2 10 Norte 24 Este 0 -- -- 59
2020-05-16 14:00:00 21.7 17 Este 28 Este 0 -- -- 61
2020-05-16 13:00:00 22 7 Sur 21 Sur 0 -- -- 60
2020-05-16 12:00:00 23.9 10 Sudoeste 18 Sur 0 -- -- 55
2020-05-16 11:00:00 23.5 6 Sur 13 Sudoeste 0 -- -- 53
2020-05-16 10:00:00 21.4 8 Sudeste 18 Norte 0 -- -- 63
2020-05-16 09:00:00 19.6 10 Norte 25 Norte 0 -- -- 67
2020-05-16 08:00:00 17.3 11 Nordeste 29 Norte 0 -- -- 71
2020-05-16 07:00:00 17 14 Norte 28 Nordeste 0 -- -- 71
2020-05-16 06:00:00 16 0 Calma 9 Nordeste 0 -- -- 78
2020-05-16 05:00:00 16.8 5 Nordeste 16 Nordeste 0 -- -- 73
2020-05-16 04:00:00 17.1 6 Nordeste 14 Nordeste 0 -- -- 73
2020-05-16 03:00:00 16.6 6 Nordeste 14 Nordeste 0 -- -- 87
2020-05-16 02:00:00 16.7 4 Nordeste 9 Nordeste 0 -- -- 88
2020-05-16 01:00:00 17 4 Nordeste 11 Este 0 -- -- 87
2020-05-16 00:00:00 17 3 Este 14 Este 0 -- -- 88
2020-05-15 23:00:00 17.2 7 Nordeste 15 Nordeste 0 -- -- 84
2020-05-15 22:00:00 17.3 7 Nordeste 15 Este 0 -- -- 79
2020-05-15 21:00:00 17.8 6 Este 18 Nordeste 0 -- -- 74
2020-05-15 20:00:00 18.7 11 Nordeste 22 Nordeste 0 -- -- 65
2020-05-15 19:00:00 18.4 12 Este 23 Este 0 -- -- 74
2020-05-15 18:00:00 20.7 15 Este 23 Este 0 -- -- 58
2020-05-15 17:00:00 20.4 11 Este 20 Este 0 -- -- 60
2020-05-15 16:00:00 19.7 9 Este 18 Sudeste 0 -- -- 70
2020-05-15 15:00:00 19.7 9 Sudeste 21 Sudeste 0 -- -- 73
2020-05-15 14:00:00 19.5 11 Sudeste 22 Este 0 -- -- 75
2020-05-15 13:00:00 19.8 13 Este 21 Este 0 -- -- 69
2020-05-15 12:00:00 20.6 9 Sudeste 17 Sudeste 0 -- -- 60
2020-05-15 11:00:00 21.7 5 Sudeste 13 Este 0 -- -- 62
2020-05-15 10:00:00 19.9 6 Sudeste 13 Este 0 -- -- 63
2020-05-15 09:00:00 19.8 5 Sudeste 10 Este 0 -- -- 64
2020-05-15 08:00:00 16.5 3 Noroeste 8 Noroeste 0 -- -- 80
2020-05-15 07:00:00 14.3 4 Norte 13 Norte 0 -- -- 85
2020-05-15 06:00:00 14.3 2 Norte 15 Norte 0 -- -- 85
2020-05-15 05:00:00 13.9 5 Este 10 Este 0.2 -- -- 88
2020-05-15 04:00:00 13.7 0 Calma 12 Nordeste 0 -- -- 89
2020-05-15 03:00:00 13.5 5 Este 9 Sudeste 0 -- -- 91
2020-05-15 02:00:00 13.1 0 Calma 13 Oeste 0 -- -- 92
2020-05-15 01:00:00 13.4 3 Este 16 Sudoeste 0 -- -- 91
2020-05-15 00:00:00 13.7 2 Este 10 Noroeste 0 -- -- 91
2020-05-14 23:00:00 13.6 4 Noroeste 14 Norte 0 -- -- 91
2020-05-14 22:00:00 14.1 9 Norte 17 Norte 0 -- -- 93
2020-05-14 21:00:00 14.5 4 Norte 7 Norte 0 -- -- 94
2020-05-14 20:00:00 14.7 0 Calma 10 Sur 1.2 -- -- 94
2020-05-14 19:00:00 14.9 4 Sudoeste 15 Sur 2.2 -- -- 93
2020-05-14 18:00:00 15.3 6 Sur 22 Sudeste 2.4 -- -- 94
2020-05-14 17:00:00 16.8 8 Este 25 Este 0.6 -- -- 93
2020-05-14 16:00:00 17.2 17 Este 28 Este 0 -- -- 92
2020-05-14 15:00:00 16.9 14 Este 26 Este 0 -- -- 90
2020-05-14 14:00:00 17.1 13 Este 29 Este 0 -- -- 90
2020-05-14 13:00:00 17.1 15 Nordeste 27 Este 0.6 -- -- 90
2020-05-14 12:00:00 17.2 12 Este 23 Sudeste 0 -- -- 87
2020-05-14 11:00:00 17.7 8 Este 21 Nordeste 0 -- -- 81
2020-05-14 10:00:00 18.9 10 Este 18 Este 0 -- -- 76
2020-05-14 09:00:00 19.5 5 Este 13 Nordeste 0 -- -- 70
2020-05-14 08:00:00 17.2 6 Este 12 Este 0 -- -- 83
2020-05-14 07:00:00 16.3 4 Nordeste 12 Nordeste 0 -- -- 84
2020-05-14 06:00:00 16.5 6 Nordeste 18 Este 0 -- -- 83
2020-05-14 05:00:00 16.9 9 Nordeste 14 Nordeste 0 -- -- 82
2020-05-14 04:00:00 16.2 3 Norte 9 Norte 0 -- -- 82
2020-05-14 03:00:00 17.6 4 Nordeste 15 Nordeste 0 -- -- 77
2020-05-14 02:00:00 18.2 6 Norte 13 Noroeste 0 -- -- 74
2020-05-14 01:00:00 18 6 Norte 15 Norte 0 -- -- 68
2020-05-14 00:00:00 17 5 Noroeste 12 Noroeste 0 -- -- 75
2020-05-13 23:00:00 16.9 3 Norte 8 Norte 0 -- -- 77
2020-05-13 22:00:00 16.9 3 Sudoeste 19 Sudoeste 0 -- -- 78
2020-05-13 21:00:00 17.5 10 Sudoeste 32 Sudoeste 0 -- -- 80
2020-05-13 20:00:00 20.1 14 Sudoeste 31 Sudoeste 0 -- -- 72
2020-05-13 19:00:00 21.4 17 Sudoeste 34 Sudoeste 0 -- -- 65
2020-05-13 18:00:00 21.2 20 Sudoeste 38 Sudoeste 0 -- -- 68
2020-05-13 17:00:00 22.2 15 Sudoeste 39 Sudoeste 0 -- -- 68
2020-05-13 16:00:00 21.9 16 Sudoeste 41 Sur 0 -- -- 64
2020-05-13 15:00:00 22.1 19 Sudoeste 36 Sudoeste 0 -- -- 60
2020-05-13 14:00:00 22.5 16 Sudoeste 35 Sudoeste 0 -- -- 62
2020-05-13 13:00:00 23.3 17 Sudoeste 29 Sudoeste 0 -- -- 58
2020-05-13 12:00:00 22.5 15 Sudoeste 31 Sudoeste 0 -- -- 63
2020-05-13 11:00:00 22.5 14 Oeste 23 Oeste 0 -- -- 61
2020-05-13 10:00:00 21.3 9 Noroeste 26 Norte 0 -- -- 62
2020-05-13 09:00:00 17 13 Noroeste 28 Norte 0 -- -- 76
2020-05-13 08:00:00 18 12 Norte 24 Norte 0 -- -- 75
2020-05-13 07:00:00 15.9 12 Norte 22 Norte 0 -- -- 82
2020-05-13 06:00:00 15.4 12 Norte 23 Norte 0.6 -- -- 84
2020-05-13 05:00:00 16.4 6 Norte 13 Nordeste 0.2 -- -- 77
2020-05-13 04:00:00 18.4 9 Nordeste 28 Norte 0 -- -- 61
2020-05-13 03:00:00 17.9 15 Norte 30 Norte 0 -- -- 64
2020-05-13 02:00:00 16.6 6 Nordeste 20 Norte 0.2 -- -- 75
2020-05-13 01:00:00 16.9 8 Norte 18 Norte 0 -- -- 70
2020-05-13 00:00:00 17.2 12 Nordeste 23 Nordeste 0 -- -- 69
2020-05-12 23:00:00 16.5 7 Nordeste 21 Nordeste 0 -- -- 76
2020-05-12 22:00:00 16.1 11 Este 22 Nordeste 0 -- -- 82
2020-05-12 21:00:00 16.3 9 Este 24 Nordeste 0 -- -- 79
2020-05-12 20:00:00 16.8 11 Este 30 Este 0 -- -- 77
2020-05-12 19:00:00 18.5 14 Este 29 Este 0 -- -- 71
2020-05-12 18:00:00 18.7 16 Este 30 Este 0 -- -- 73
2020-05-12 17:00:00 18.8 16 Este 28 Este 0 -- -- 75
2020-05-12 16:00:00 18.4 15 Este 29 Este 0 -- -- 72
2020-05-12 15:00:00 18.4 12 Este 22 Este 0 -- -- 74
2020-05-12 14:00:00 17.9 13 Este 26 Este 0 -- -- 78
2020-05-12 13:00:00 19.4 11 Este 20 Sudeste 0 -- -- 72
2020-05-12 12:00:00 17.9 10 Este 18 Este 0 -- -- 78
2020-05-12 11:00:00 19.9 10 Este 22 Este 0 -- -- 70
2020-05-12 10:00:00 20.3 12 Este 24 Este 0 -- -- 69
2020-05-12 09:00:00 18.8 9 Este 18 Nordeste 0 -- -- 77
2020-05-12 08:00:00 17.6 8 Este 13 Este 0 -- -- 81
2020-05-12 07:00:00 15.9 8 Nordeste 19 Nordeste 0 -- -- 84
2020-05-12 06:00:00 15.5 7 Nordeste 15 Este 0 -- -- 84
2020-05-12 05:00:00 14.9 5 Norte 9 Nordeste 0 -- -- 84
2020-05-12 04:00:00 14.8 4 Norte 8 Noroeste 0 -- -- 87
2020-05-12 03:00:00 15.2 4 Norte 6 Norte 0 -- -- 86
2020-05-12 02:00:00 15.8 4 Norte 6 Norte 0 -- -- 83
2020-05-12 01:00:00 16.3 3 Este 11 Este 0 -- -- 80
2020-05-12 00:00:00 16.9 6 Este 15 Este 0 -- -- 77
2020-05-11 23:00:00 17.4 5 Oeste 18 Sudoeste 0 -- -- 73
2020-05-11 22:00:00 18.6 10 Sudoeste 23 Sudoeste 0 -- -- 72
2020-05-11 21:00:00 20.1 7 Sudoeste 31 Sudoeste 0 -- -- 59
2020-05-11 20:00:00 22 18 Sudoeste 36 Sudoeste 0 -- -- 57
2020-05-11 19:00:00 22.7 15 Sudoeste 42 Sudoeste 0 -- -- 54
2020-05-11 18:00:00 24.5 20 Sudoeste 54 Oeste 0 -- -- 50
2020-05-11 17:00:00 25.8 28 Oeste 49 Oeste 0 -- -- 39
2020-05-11 16:00:00 25.3 27 Oeste 57 Oeste 0 -- -- 41
2020-05-11 15:00:00 24.6 28 Oeste 51 Oeste 0 -- -- 44
2020-05-11 14:00:00 24.3 25 Oeste 53 Noroeste 0 -- -- 46
2020-05-11 13:00:00 23.7 25 Oeste 52 Sudoeste 0 -- -- 45
2020-05-11 12:00:00 22.9 22 Oeste 45 Oeste 0 -- -- 48
2020-05-11 11:00:00 21.5 19 Oeste 37 Sudoeste 0 -- -- 54
2020-05-11 10:00:00 20 22 Oeste 39 Sudoeste 0 -- -- 58
2020-05-11 09:00:00 18.5 18 Oeste 41 Oeste 0 -- -- 64
2020-05-11 08:00:00 18.1 8 Sudoeste 20 Sudoeste 0 -- -- 66
2020-05-11 07:00:00 14.8 10 Oeste 21 Sudoeste 0 -- -- 78
2020-05-11 06:00:00 14.9 12 Oeste 23 Sudoeste 0 -- -- 79
2020-05-11 05:00:00 15.3 12 Oeste 22 Sudoeste 0 -- -- 78
2020-05-11 04:00:00 15.8 13 Oeste 30 Oeste 0 -- -- 76
2020-05-11 03:00:00 15 7 Oeste 24 Sudoeste 0 -- -- 79
2020-05-11 02:00:00 15.2 12 Sudoeste 20 Sudoeste 0 -- -- 79
2020-05-11 01:00:00 15.2 9 Sudoeste 19 Sudoeste 0 -- -- 82
2020-05-11 00:00:00 15.3 12 Oeste 21 Sudoeste 0 -- -- 81
2020-05-10 23:00:00 15 6 Sudoeste 21 Sudoeste 0 -- -- 83
2020-05-10 22:00:00 15.4 15 Oeste 29 Oeste 0 -- -- 78
2020-05-10 21:00:00 15.9 16 Oeste 33 Oeste 0 -- -- 75
2020-05-10 20:00:00 17.1 14 Oeste 36 Oeste 0 -- -- 71
2020-05-10 19:00:00 18.2 17 Sudoeste 39 Sur 0 -- -- 77
2020-05-10 18:00:00 19.4 9 Sur 29 Sur 0 -- -- 82
2020-05-10 17:00:00 18.4 15 Sur 32 Sudoeste 0 -- -- 81
2020-05-10 16:00:00 20.6 13 Sur 25 Sur 0 -- -- 73
2020-05-10 15:00:00 20.1 12 Sur 35 Sudoeste 0 -- -- 77
2020-05-10 14:00:00 19.3 8 Sudeste 21 Sur 0 -- -- 93
2020-05-10 13:00:00 18.8 8 Este 16 Este 0 -- -- 95
2020-05-10 12:00:00 18.9 5 Sudeste 18 Sudeste 0.2 -- -- 96
2020-05-10 11:00:00 18.4 8 Este 13 Este 0 -- -- 96
2020-05-10 10:00:00 17.9 5 Este 10 Este 0.2 -- -- 97
2020-05-10 09:00:00 17.6 6 Sudeste 18 Este 0.4 -- -- 97
2020-05-10 08:00:00 17.5 7 Sudeste 31 Sudeste 3.2 -- -- 97
2020-05-10 07:00:00 17.7 6 Sudeste 17 Sudeste 0 -- -- 97
2020-05-10 06:00:00 17.7 7 Este 15 Este 0 -- -- 97
2020-05-10 05:00:00 17.8 9 Este 14 Este 0 -- -- 96
2020-05-10 04:00:00 18 5 Este 11 Este 0 -- -- 96
2020-05-10 03:00:00 18 0 Calma 9 Sudoeste 3 -- -- 95
2020-05-10 02:00:00 18 6 Este 17 Este 0 -- -- 95
2020-05-10 01:00:00 18.1 8 Nordeste 15 Nordeste 0 -- -- 94
2020-05-10 00:00:00 18 8 Este 15 Este 0.2 -- -- 92
2020-05-09 23:00:00 18.2 7 Este 18 Este 0 -- -- 89
2020-05-09 22:00:00 18.2 0 Calma 15 Este 0 -- -- 87
2020-05-09 21:00:00 18.4 8 Este 19 Este 0 -- -- 87
2020-05-09 20:00:00 18.9 10 Este 20 Nordeste 0 -- -- 85
2020-05-09 19:00:00 19.9 11 Este 24 Nordeste 0 -- -- 81
2020-05-09 18:00:00 19.7 13 Este 23 Este 0 -- -- 81
2020-05-09 17:00:00 19.7 5 Este 13 Este 0 -- -- 81
2020-05-09 16:00:00 20 4 Sudeste 22 Nordeste 0 -- -- 79
2020-05-09 15:00:00 18.6 10 Este 25 Nordeste 0.2 -- -- 87
2020-05-09 14:00:00 18.9 6 Este 22 Este 0 -- -- 79
2020-05-09 13:00:00 19.1 12 Este 26 Este 0 -- -- 78
2020-05-09 12:00:00 19 12 Este 23 Este 0 -- -- 79
2020-05-09 11:00:00 19.2 12 Este 18 Este 0 -- -- 75
2020-05-09 10:00:00 19.4 8 Nordeste 16 Nordeste 0 -- -- 74
2020-05-09 09:00:00 19.2 5 Nordeste 14 Nordeste 0 -- -- 76
2020-05-09 08:00:00 18.5 7 Nordeste 15 Nordeste 0 -- -- 78
2020-05-09 07:00:00 17.8 5 Norte 10 Este 0 -- -- 81
2020-05-09 06:00:00 17.6 5 Nordeste 8 Nordeste 0 -- -- 83
2020-05-09 05:00:00 17.2 4 Nordeste 6 Norte 0 -- -- 85
2020-05-09 04:00:00 16.9 3 Nordeste 6 Nordeste 0 -- -- 87
2020-05-09 03:00:00 16.7 2 Norte 7 Norte 0 -- -- 90
2020-05-09 02:00:00 16.4 3 Norte 9 Nordeste 0 -- -- 90
2020-05-09 01:00:00 16.7 3 Norte 8 Nordeste 0 -- -- 89
2020-05-09 00:00:00 17.3 4 Norte 6 Norte 0 -- -- 87
2020-05-08 23:00:00 17.9 4 Nordeste 8 Nordeste 0 -- -- 86
2020-05-08 22:00:00 17.9 4 Nordeste 12 Este 0 -- -- 88
2020-05-08 21:00:00 18.4 6 Este 14 Este 0 -- -- 83
2020-05-08 20:00:00 21 6 Este 18 Nordeste 0 -- -- 65
2020-05-08 19:00:00 20.9 9 Este 17 Este 0 -- -- 72
2020-05-08 18:00:00 22.7 6 Este 14 Sudeste 0 -- -- 62
2020-05-08 17:00:00 23 7 Este 17 Este 0 -- -- 62
2020-05-08 16:00:00 23.4 10 Este 16 Este 0 -- -- 50
2020-05-08 15:00:00 23.4 9 Este 18 Este 0 -- -- 52
2020-05-08 14:00:00 23.7 7 Este 15 Sudeste 0 -- -- 55
2020-05-08 13:00:00 23 8 Sudeste 17 Este 0 -- -- 63
2020-05-08 12:00:00 22.1 8 Este 13 Sudeste 0 -- -- 69
2020-05-08 11:00:00 23.7 5 Sudeste 14 Este 0 -- -- 67
2020-05-08 10:00:00 23.8 4 Nordeste 12 Este 0 -- -- 53
2020-05-08 09:00:00 21.1 8 Este 11 Este 0 -- -- 69
2020-05-08 08:00:00 20.3 2 Norte 5 Norte 0 -- -- 69
2020-05-08 07:00:00 15.5 2 Norte 6 Norte 0 -- -- 82
2020-05-08 06:00:00 15.4 3 Norte 8 Nordeste 0 -- -- 84
2020-05-08 05:00:00 16 5 Norte 8 Norte 0 -- -- 84
2020-05-08 04:00:00 15.9 3 Nordeste 5 Norte 0 -- -- 84
2020-05-08 03:00:00 16 2 Norte 8 Norte 0 -- -- 86
2020-05-08 02:00:00 16.9 5 Norte 12 Norte 0 -- -- 86
2020-05-08 01:00:00 17.7 6 Nordeste 13 Nordeste 0 -- -- 84
2020-05-08 00:00:00 18 6 Este 19 Nordeste 0 -- -- 84
2020-05-07 23:00:00 17.9 10 Este 20 Este 0 -- -- 85
2020-05-07 22:00:00 17.8 11 Este 21 Este 0 -- -- 86
2020-05-07 21:00:00 17.9 11 Este 22 Este 0 -- -- 88
2020-05-07 20:00:00 18.8 12 Este 23 Este 0 -- -- 83
2020-05-07 19:00:00 19 10 Este 24 Este 0 -- -- 82
2020-05-07 18:00:00 20.4 13 Este 26 Nordeste 0 -- -- 65
2020-05-07 17:00:00 20.5 13 Este 22 Este 0 -- -- 64
2020-05-07 16:00:00 20.3 16 Este 27 Sudeste 0 -- -- 68
2020-05-07 15:00:00 21.7 16 Este 26 Este 0 -- -- 66
2020-05-07 14:00:00 23 13 Este 23 Este 0 -- -- 57
2020-05-07 13:00:00 21.8 11 Este 23 Este 0 -- -- 62
2020-05-07 12:00:00 22.3 12 Este 28 Este 0 -- -- 56
2020-05-07 11:00:00 23.1 13 Este 24 Este 0 -- -- 52
2020-05-07 10:00:00 22.8 10 Este 19 Este 0 -- -- 54
2020-05-07 09:00:00 23.5 6 Este 13 Nordeste 0 -- -- 52
2020-05-07 08:00:00 22.7 6 Nordeste 14 Este 0 -- -- 53
2020-05-07 07:00:00 19 4 Norte 14 Nordeste 0 -- -- 60
2020-05-07 06:00:00 19.3 5 Norte 10 Nordeste 0 -- -- 59
2020-05-07 05:00:00 19.4 6 Norte 22 Este 0 -- -- 60
2020-05-07 04:00:00 18.7 4 Norte 9 Noroeste 0 -- -- 64
2020-05-07 03:00:00 18.6 5 Noroeste 8 Noroeste 0 -- -- 64
2020-05-07 02:00:00 17.6 3 Noroeste 5 Noroeste 0 -- -- 66
2020-05-07 01:00:00 18.6 4 Noroeste 7 Norte 0 -- -- 64
2020-05-07 00:00:00 18.5 0 Calma 15 Oeste 0 -- -- 67
2020-05-06 23:00:00 18.8 5 Noroeste 6 Noroeste 0 -- -- 67
2020-05-06 22:00:00 19.1 4 Noroeste 7 Noroeste 0 -- -- 68
2020-05-06 21:00:00 20.1 2 Sudoeste 13 Oeste 0 -- -- 68
2020-05-06 20:00:00 21.7 8 Sudoeste 16 Sudoeste 0 -- -- 65
2020-05-06 19:00:00 24.9 8 Sudoeste 18 Sudoeste 0 -- -- 55
2020-05-06 18:00:00 25.2 10 Sudoeste 19 Sudoeste 0 -- -- 55
2020-05-06 17:00:00 25.5 8 Sudoeste 17 Sur 0 -- -- 53
2020-05-06 16:00:00 24.9 8 Sur 20 Sudoeste 0 -- -- 55
2020-05-06 15:00:00 24.9 12 Sudoeste 22 Sudoeste 0 -- -- 56
2020-05-06 14:00:00 26.1 9 Sudoeste 17 Sudoeste 0 -- -- 49
2020-05-06 13:00:00 25.9 9 Sudoeste 15 Sudoeste 0 -- -- 50
2020-05-06 12:00:00 26 9 Sudoeste 14 Sur 0 -- -- 50
2020-05-06 11:00:00 26.6 5 Sur 12 Sur 0 -- -- 51
2020-05-06 10:00:00 24.8 6 Sur 12 Sur 0 -- -- 58
2020-05-06 09:00:00 25.4 2 Sudeste 8 Este 0 -- -- 54
2020-05-06 08:00:00 20.3 4 Este 16 Este 0 -- -- 75
2020-05-06 07:00:00 15.8 0 Calma 5 Noroeste 0 -- -- 88
2020-05-06 06:00:00 15.3 0 Calma 5 Oeste 0 -- -- 90
2020-05-06 05:00:00 15.6 0 Calma 4 Sudoeste 0 -- -- 88
2020-05-06 04:00:00 15.9 3 Oeste 6 Noroeste 0 -- -- 88
2020-05-06 03:00:00 15.7 0 Calma 4 Noroeste 0 -- -- 91
2020-05-06 02:00:00 16 2 Noroeste 3 Noroeste 0 -- -- 89
2020-05-06 01:00:00 16.3 0 Calma 4 Noroeste 0 -- -- 88
2020-05-06 00:00:00 17.3 3 Norte 5 Noroeste 0 -- -- 85
2020-05-05 23:00:00 17.3 0 Calma 5 Norte 0 -- -- 79
2020-05-05 22:00:00 18.3 3 Norte 6 Norte 0 -- -- 76
2020-05-05 21:00:00 19.1 4 Nordeste 8 Nordeste 0 -- -- 76
2020-05-05 20:00:00 19 3 Este 11 Este 0 -- -- 79
2020-05-05 19:00:00 20.7 7 Este 17 Nordeste 0 -- -- 71
2020-05-05 18:00:00 21.3 8 Este 16 Nordeste 0 -- -- 70
2020-05-05 17:00:00 20.5 8 Este 23 Nordeste 0 -- -- 75
2020-05-05 16:00:00 19.6 11 Este 23 Nordeste 0 -- -- 80
2020-05-05 15:00:00 20.2 13 Este 28 Este 0 -- -- 77
2020-05-05 14:00:00 21.2 17 Este 30 Este 0 -- -- 75
2020-05-05 13:00:00 21.6 15 Este 27 Este 0 -- -- 71
2020-05-05 12:00:00 24.1 10 Sudoeste 15 Sur 0 -- -- 63
2020-05-05 11:00:00 24.7 8 Sudoeste 13 Sudoeste 0 -- -- 55
2020-05-05 10:00:00 24.6 6 Sudoeste 11 Sudoeste 0 -- -- 55
2020-05-05 09:00:00 21.4 0 Calma 4 Oeste 0 -- -- 64
2020-05-05 08:00:00 19 0 Calma 6 Norte 0 -- -- 70
2020-05-05 07:00:00 17 3 Nordeste 6 Nordeste 0 -- -- 73
2020-05-05 06:00:00 17.5 0 Calma 6 Este 0 -- -- 71
2020-05-05 05:00:00 20.3 5 Sudoeste 14 Noroeste 0 -- -- 56
2020-05-05 04:00:00 20.2 2 Oeste 18 Oeste 0 -- -- 55
2020-05-05 03:00:00 21.3 7 Oeste 19 Oeste 0 -- -- 52
2020-05-05 02:00:00 21.4 10 Oeste 23 Oeste 0 -- -- 51
2020-05-05 01:00:00 18.1 2 Este 8 Este 0 -- -- 83
2020-05-05 00:00:00 17.2 0 Calma 7 Sudoeste 0 -- -- 81
2020-05-04 23:00:00 18.9 4 Oeste 9 Sudoeste 0 -- -- 83
2020-05-04 22:00:00 19.3 5 Sudoeste 14 Oeste 0 -- -- 80
2020-05-04 21:00:00 19.2 8 Sudoeste 18 Oeste 0 -- -- 79
2020-05-04 20:00:00 20.8 10 Sudoeste 20 Sudoeste 0 -- -- 72
2020-05-04 19:00:00 23.6 10 Sudoeste 22 Sudoeste 0 -- -- 62
2020-05-04 18:00:00 24.3 10 Sudoeste 22 Sudoeste 0 -- -- 58
2020-05-04 17:00:00 24.7 13 Sudoeste 27 Sudoeste 0 -- -- 57
2020-05-04 16:00:00 25 12 Sudoeste 22 Oeste 0 -- -- 58
2020-05-04 15:00:00 24 10 Sudoeste 22 Sudoeste 0 -- -- 61
2020-05-04 14:00:00 25.3 10 Sudoeste 17 Sudoeste 0 -- -- 53
2020-05-04 13:00:00 23.5 7 Sur 13 Sur 0 -- -- 68
2020-05-04 12:00:00 24 5 Sur 12 Sur 0 -- -- 66
2020-05-04 11:00:00 22.1 4 Sudeste 11 Sudeste 0 -- -- 73
2020-05-04 10:00:00 21.7 4 Sudeste 9 Este 0 -- -- 71
2020-05-04 09:00:00 21 3 Este 5 Este 0 -- -- 73
2020-05-04 08:00:00 18.1 0 Calma 4 Norte 0 -- -- 83
2020-05-04 07:00:00 15.4 0 Calma 4 Noroeste 0 -- -- 89
2020-05-04 06:00:00 15.3 3 Norte 9 Noroeste 0 -- -- 90
2020-05-04 05:00:00 15.3 3 Noroeste 5 Norte 0 -- -- 92
2020-05-04 04:00:00 15.4 0 Calma 5 Norte 0 -- -- 90
2020-05-04 03:00:00 15.4 2 Norte 5 Noroeste 0 -- -- 89
2020-05-04 02:00:00 15.7 2 Norte 5 Noroeste 0 -- -- 88
2020-05-04 01:00:00 16.2 4 Noroeste 6 Noroeste 0 -- -- 86
2020-05-04 00:00:00 16.4 2 Norte 6 Noroeste 0 -- -- 84
2020-05-03 23:00:00 17 3 Norte 6 Norte 0 -- -- 82
2020-05-03 22:00:00 17.6 3 Noroeste 6 Noroeste 0 -- -- 79
2020-05-03 21:00:00 18.5 0 Calma 9 Sudoeste 0 -- -- 75
2020-05-03 20:00:00 21.7 4 Sudoeste 13 Sudoeste 0 -- -- 65
2020-05-03 19:00:00 23.5 5 Sudoeste 12 Sur 0 -- -- 60
2020-05-03 18:00:00 23.5 6 Sur 17 Sur 0 -- -- 59
2020-05-03 17:00:00 23.6 6 Sur 17 Sudoeste 0 -- -- 60
2020-05-03 16:00:00 23.8 7 Sur 18 Sur 0 -- -- 60
2020-05-03 15:00:00 23.2 11 Sudoeste 18 Sudoeste 0 -- -- 61
2020-05-03 14:00:00 24 8 Sudoeste 17 Sudoeste 0 -- -- 60
2020-05-03 13:00:00 24.1 9 Sur 17 Sur 0 -- -- 58
2020-05-03 12:00:00 23.9 7 Sudoeste 17 Sudoeste 0 -- -- 59
2020-05-03 11:00:00 24 6 Sur 15 Sudoeste 0 -- -- 59
2020-05-03 10:00:00 23.2 6 Sudeste 12 Sudeste 0 -- -- 62
2020-05-03 09:00:00 23.6 2 Sudeste 8 Este 0 -- -- 61
2020-05-03 08:00:00 19.1 0 Calma 4 Sudoeste 0 -- -- 79
2020-05-03 07:00:00 15.7 0 Calma 9 Norte 0 -- -- 83
2020-05-03 06:00:00 17.3 6 Norte 11 Noroeste 0 -- -- 77
2020-05-03 05:00:00 15 0 Calma 10 Noroeste 0 -- -- 86
2020-05-03 04:00:00 14.9 2 Oeste 4 Noroeste 0 -- -- 86
2020-05-03 03:00:00 15.8 0 Calma 5 Norte 0 -- -- 82
2020-05-03 02:00:00 16.6 4 Noroeste 8 Noroeste 0 -- -- 79
2020-05-03 01:00:00 17.7 4 Norte 9 Norte 0 -- -- 74
2020-05-03 00:00:00 16.7 3 Norte 6 Nordeste 0 -- -- 81
2020-05-02 23:00:00 17 0 Calma 8 Este 0 -- -- 79
2020-05-02 22:00:00 18.2 3 Nordeste 7 Norte 0 -- -- 76
2020-05-02 21:00:00 18.6 4 Nordeste 11 Este 0 -- -- 78
2020-05-02 20:00:00 20.3 6 Este 15 Este 0 -- -- 68
2020-05-02 19:00:00 21 8 Este 15 Este 0 -- -- 70
2020-05-02 18:00:00 21.8 8 Este 15 Sudeste 0 -- -- 66
2020-05-02 17:00:00 21.2 10 Este 17 Este 0 -- -- 74
2020-05-02 16:00:00 22.1 7 Este 16 Sudeste 0 -- -- 67
2020-05-02 15:00:00 20.9 9 Sudeste 19 Este 0 -- -- 75
2020-05-02 14:00:00 22.2 5 Sudeste 16 Sudeste 0 -- -- 69
2020-05-02 13:00:00 23 6 Sudeste 16 Este 0 -- -- 65
2020-05-02 12:00:00 20.2 7 Este 22 Sudeste 0 -- -- 75
2020-05-02 11:00:00 24.5 4 Sudeste 9 Sudoeste 0 -- -- 59
2020-05-02 10:00:00 21.2 6 Este 15 Este 0 -- -- 67
2020-05-02 09:00:00 20.9 6 Este 11 Este 0 -- -- 67
2020-05-02 08:00:00 17.2 3 Noroeste 8 Noroeste 0 -- -- 79
2020-05-02 07:00:00 15.5 3 Norte 7 Norte 0 -- -- 83
2020-05-02 06:00:00 16.1 4 Norte 10 Noroeste 0 -- -- 78
2020-05-02 05:00:00 16 4 Norte 8 Noroeste 0 -- -- 79
2020-05-02 04:00:00 16.2 4 Norte 9 Noroeste 0 -- -- 75
2020-05-02 03:00:00 16.1 4 Norte 9 Noroeste 0 -- -- 75
2020-05-02 02:00:00 16 5 Norte 10 Noroeste 0 -- -- 80
2020-05-02 01:00:00 16.4 4 Norte 6 Oeste 0 -- -- 76
2020-05-02 00:00:00 16.9 0 Calma 8 Este 0 -- -- 75
2020-05-01 23:00:00 17.2 4 Nordeste 12 Sudeste 0 -- -- 76
2020-05-01 22:00:00 18.7 0 Calma 12 Este 0 -- -- 68
2020-05-01 21:00:00 19.3 3 Este 18 Este 0 -- -- 62
2020-05-01 20:00:00 21.7 10 Nordeste 33 Este 0 -- -- 50
2020-05-01 19:00:00 23.3 17 Nordeste 39 Oeste 0 -- -- 48
2020-05-01 18:00:00 26.3 21 Oeste 45 Oeste 0 -- -- 45
2020-05-01 17:00:00 26.8 17 Oeste 48 Noroeste 0 -- -- 44
2020-05-01 16:00:00 27.1 19 Oeste 58 Oeste 0 -- -- 45
2020-05-01 15:00:00 26.7 24 Oeste 55 Noroeste 0 -- -- 45
2020-05-01 14:00:00 26 24 Oeste 48 Sudoeste 0 -- -- 46
2020-05-01 13:00:00 25.6 21 Oeste 49 Sudoeste 0 -- -- 48
2020-05-01 12:00:00 25.1 16 Oeste 33 Sudoeste 0 -- -- 47
2020-05-01 11:00:00 24.4 10 Oeste 31 Noroeste 0 -- -- 46
2020-05-01 10:00:00 22.5 16 Oeste 35 Oeste 0 -- -- 51
2020-05-01 09:00:00 21.4 6 Noroeste 39 Oeste 0 -- -- 54
2020-05-01 08:00:00 19.3 18 Oeste 42 Oeste 0 -- -- 57
2020-05-01 07:00:00 18.3 20 Oeste 43 Oeste 0 -- -- 57
2020-05-01 06:00:00 17.2 9 Oeste 22 Noroeste 0 -- -- 59
2020-05-01 05:00:00 17.6 4 Oeste 27 Oeste 0 -- -- 57
2020-05-01 04:00:00 16 13 Sudoeste 24 Sudoeste 0 -- -- 65
2020-05-01 03:00:00 15.5 11 Oeste 19 Sudoeste 0 -- -- 72
2020-05-01 02:00:00 14.1 4 Noroeste 6 Norte 0 -- -- 79
2020-05-01 01:00:00 14.6 3 Noroeste 8 Noroeste 0 -- -- 76
2020-05-01 00:00:00 15.4 3 Norte 9 Noroeste 0 -- -- 73
2020-04-30 23:00:00 16.1 5 Norte 13 Norte 0 -- -- 71
2020-04-30 22:00:00 15.9 5 Norte 10 Nordeste 0 -- -- 75
2020-04-30 21:00:00 16.6 5 Nordeste 13 Nordeste 0 -- -- 75
2020-04-30 20:00:00 18.3 6 Nordeste 31 Este 0 -- -- 70
2020-04-30 19:00:00 20.4 22 Este 35 Este 0 -- -- 59
2020-04-30 18:00:00 25.2 14 Oeste 50 Noroeste 0 -- -- 37
2020-04-30 17:00:00 23.9 26 Oeste 52 Sudoeste 0 -- -- 38
2020-04-30 16:00:00 23.8 16 Oeste 48 Oeste 0 -- -- 38
2020-04-30 15:00:00 24 21 Oeste 45 Sudoeste 0 -- -- 36
2020-04-30 14:00:00 24.2 24 Oeste 46 Oeste 0 -- -- 39
2020-04-30 13:00:00 23.7 21 Oeste 49 Oeste 0 -- -- 44
2020-04-30 12:00:00 22.6 28 Oeste 50 Oeste 0 -- -- 46
2020-04-30 11:00:00 20.1 17 Oeste 29 Oeste 0 -- -- 53
2020-04-30 10:00:00 19.7 12 Oeste 30 Oeste 0 -- -- 55
2020-04-30 09:00:00 19 6 Oeste 25 Oeste 0 -- -- 56
2020-04-30 08:00:00 17.9 13 Noroeste 38 Oeste 0 -- -- 56
2020-04-30 07:00:00 17.4 13 Noroeste 30 Norte 0 -- -- 57
2020-04-30 06:00:00 17.7 14 Noroeste 29 Oeste 0 -- -- 57
2020-04-30 05:00:00 17.8 9 Noroeste 23 Noroeste 0 -- -- 57
2020-04-30 04:00:00 18 9 Oeste 26 Oeste 0 -- -- 53
2020-04-30 03:00:00 18.2 12 Noroeste 28 Noroeste 0 -- -- 51
2020-04-30 02:00:00 17.6 9 Noroeste 26 Noroeste 0 -- -- 53
2020-04-30 01:00:00 17.3 7 Oeste 23 Oeste 0 -- -- 55
2020-04-30 00:00:00 17.2 10 Oeste 28 Noroeste 0 -- -- 55
2020-04-29 23:00:00 17.2 8 Oeste 20 Oeste 0 -- -- 57
2020-04-29 22:00:00 17.9 9 Oeste 18 Oeste 0 -- -- 54
2020-04-29 21:00:00 17.7 12 Oeste 35 Sudoeste 0 -- -- 56
2020-04-29 20:00:00 19.1 18 Sudoeste 37 Sudoeste 0 -- -- 55
2020-04-29 19:00:00 21.1 18 Sudoeste 38 Sudoeste 0 -- -- 53
2020-04-29 18:00:00 21 19 Sudoeste 33 Sudoeste 0 -- -- 54
2020-04-29 17:00:00 20.8 11 Sudoeste 24 Sudoeste 0 -- -- 60
2020-04-29 16:00:00 20.8 14 Sudoeste 28 Sudoeste 0 -- -- 55
2020-04-29 15:00:00 20.5 12 Sudoeste 31 Sudoeste 0 -- -- 68
2020-04-29 14:00:00 20.7 12 Sur 22 Sudoeste 0 -- -- 69
2020-04-29 13:00:00 21.3 9 Sur 20 Sur 0 -- -- 66
2020-04-29 12:00:00 20.8 8 Sur 16 Sur 0 -- -- 64
2020-04-29 11:00:00 19.7 6 Sudoeste 16 Sudoeste 0 -- -- 64
2020-04-29 10:00:00 19.6 5 Sudoeste 19 Oeste 0 -- -- 62
2020-04-29 09:00:00 19.4 7 Sudoeste 14 Sudoeste 0 -- -- 65
2020-04-29 08:00:00 16.7 4 Oeste 8 Noroeste 0 -- -- 77
2020-04-29 07:00:00 12.2 5 Noroeste 6 Noroeste 0 -- -- 89
2020-04-29 06:00:00 12.2 4 Noroeste 6 Noroeste 0 -- -- 88
2020-04-29 05:00:00 11.9 3 Norte 7 Noroeste 0 -- -- 83
2020-04-29 04:00:00 12.1 4 Norte 6 Norte 0 -- -- 85
2020-04-29 03:00:00 12.9 3 Norte 6 Noroeste 0 -- -- 84
2020-04-29 02:00:00 13.3 2 Norte 6 Norte 0 -- -- 79
2020-04-29 01:00:00 14.1 4 Norte 8 Norte 0 -- -- 76
2020-04-29 00:00:00 14.8 5 Norte 12 Nordeste 0 -- -- 73
2020-04-28 23:00:00 15.9 7 Nordeste 27 Este 0 -- -- 69
2020-04-28 22:00:00 16.5 8 Nordeste 15 Este 0 -- -- 70
2020-04-28 21:00:00 17.1 8 Oeste 22 Sudoeste 0 -- -- 71
2020-04-28 20:00:00 19 14 Sudoeste 36 Sudoeste 0 -- -- 66
2020-04-28 19:00:00 20.5 20 Sudoeste 39 Sudoeste 0 -- -- 60
2020-04-28 18:00:00 20.9 19 Sudoeste 35 Sudoeste 0 -- -- 59
2020-04-28 17:00:00 20.2 17 Sudoeste 33 Sudoeste 0 -- -- 63
2020-04-28 16:00:00 -- -- -- -- -- -- -- -- --
2020-04-28 15:00:00 19.7 12 Sudoeste 27 Sur 0 -- -- 62
2020-04-28 14:00:00 20.8 11 Sudoeste 24 Sudoeste 0 -- -- 63
2020-04-28 13:00:00 20.7 12 Sudoeste 27 Oeste 0 -- -- 58
2020-04-28 12:00:00 20.8 11 Sudoeste 21 Sudoeste 0 -- -- 59
2020-04-28 11:00:00 20.9 3 Sudoeste 12 Sudeste 0 -- -- 59
2020-04-28 10:00:00 19.8 6 Sudoeste 15 Sudoeste 0 -- -- 59
2020-04-28 09:00:00 18.6 6 Noroeste 12 Nordeste 0 -- -- 61
2020-04-28 08:00:00 17 3 Este 9 Sudeste 0 -- -- 65
2020-04-28 07:00:00 13.6 9 Norte 27 Noroeste 0 -- -- 75
2020-04-28 06:00:00 13.9 15 Noroeste 35 Oeste 0 -- -- 75
2020-04-28 05:00:00 14.4 9 Noroeste 32 Noroeste 0 -- -- 72
2020-04-28 04:00:00 13.7 15 Noroeste 32 Norte 0.8 -- -- 79
2020-04-28 03:00:00 13.9 17 Noroeste 49 Noroeste 0.8 -- -- 78
2020-04-28 02:00:00 16.2 13 Oeste 24 Oeste 0 -- -- 87
2020-04-28 01:00:00 15.6 4 Sudoeste 8 Sudoeste 0 -- -- 92
2020-04-28 00:00:00 15.4 2 Sudoeste 6 Sudoeste 0 -- -- 92
2020-04-27 23:00:00 15.1 0 Calma 5 Sudoeste 0 -- -- 93
2020-04-27 22:00:00 15.8 3 Sudoeste 19 Sudoeste 0 -- -- 92
2020-04-27 21:00:00 16.4 12 Sudoeste 23 Sudoeste 0 -- -- 92
2020-04-27 20:00:00 17 8 Sudoeste 24 Sudoeste 0 -- -- 89
2020-04-27 19:00:00 18.5 12 Sudoeste 24 Sudoeste 0 -- -- 83
2020-04-27 18:00:00 20.1 12 Sudoeste 22 Sudoeste 0 -- -- 78
2020-04-27 17:00:00 19.6 9 Sudoeste 22 Sudoeste 0 -- -- 78
2020-04-27 16:00:00 20.2 12 Sudoeste 22 Sudoeste 0 -- -- 75
2020-04-27 15:00:00 20.9 9 Sur 21 Sur 0 -- -- 73
2020-04-27 14:00:00 20.9 8 Sur 17 Sudoeste 0 -- -- 73
2020-04-27 13:00:00 19.3 10 Sudoeste 21 Sudoeste 0 -- -- 77
2020-04-27 12:00:00 19.9 10 Sudoeste 18 Oeste 0 -- -- 73
2020-04-27 11:00:00 20.2 9 Sur 16 Sur 0 -- -- 71
2020-04-27 10:00:00 18.1 8 Sudoeste 15 Sur 0 -- -- 77
2020-04-27 09:00:00 17.6 7 Sudoeste 13 Oeste 0 -- -- 80
2020-04-27 08:00:00 14.8 0 Calma 4 Norte 0 -- -- 86
2020-04-27 07:00:00 12.6 0 Calma 5 Norte 0 -- -- 88
2020-04-27 06:00:00 12.6 2 Noroeste 6 Noroeste 0 -- -- 88
2020-04-27 05:00:00 13.1 3 Norte 7 Norte 0 -- -- 85
2020-04-27 04:00:00 12.3 2 Noroeste 6 Noroeste 0 -- -- 87
2020-04-27 03:00:00 13.1 2 Noroeste 5 Noroeste 0 -- -- 89
2020-04-27 02:00:00 13.4 0 Calma 4 Noroeste 0 -- -- 90
2020-04-27 01:00:00 14.1 2 Nordeste 4 Norte 0 -- -- 91
2020-04-27 00:00:00 14.3 0 Calma 4 Noroeste 0 -- -- 89
2020-04-26 23:00:00 15.2 3 Norte 5 Norte 0 -- -- 88
2020-04-26 22:00:00 15.8 3 Oeste 11 Oeste 0 -- -- 90
2020-04-26 21:00:00 16.1 7 Oeste 14 Sudoeste 0 -- -- 88
2020-04-26 20:00:00 17.1 7 Sudoeste 17 Sudoeste 0 -- -- 82
2020-04-26 19:00:00 19.3 9 Sudoeste 17 Sudoeste 0 -- -- 74
2020-04-26 18:00:00 21.3 6 Sudoeste 16 Sur 0 -- -- 67
2020-04-26 17:00:00 20.6 9 Sudoeste 17 Sudoeste 0 -- -- 68
2020-04-26 16:00:00 20.9 6 Sur 20 Sur 0 -- -- 68
2020-04-26 15:00:00 20.8 8 Sur 17 Sudoeste 0 -- -- 69
2020-04-26 14:00:00 20.8 6 Sudoeste 13 Sur 0 -- -- 70
2020-04-26 13:00:00 21.3 5 Sur 12 Sur 0 -- -- 69
2020-04-26 12:00:00 21.5 5 Sur 13 Sur 0 -- -- 66
2020-04-26 11:00:00 22.1 4 Sur 10 Sudeste 0 -- -- 66
2020-04-26 10:00:00 -- 0 Calma -- -- 0 -- -- --
2020-04-26 09:00:00 19.8 4 Sudoeste 7 Sur 0 -- -- 71
2020-04-26 08:00:00 16.2 2 Noroeste 6 Norte 0 -- -- 90
2020-04-26 07:00:00 12.3 2 Norte 6 Noroeste 0 -- -- 94
2020-04-26 06:00:00 12.4 2 Norte 5 Norte 0 -- -- 94
2020-04-26 05:00:00 12.5 3 Noroeste 5 Noroeste 0 -- -- 93
2020-04-26 04:00:00 12.7 3 Noroeste 5 Noroeste 0 -- -- 92
2020-04-26 03:00:00 13 2 Norte 5 Norte 0 -- -- 91
2020-04-26 02:00:00 13.2 0 Calma 5 Noroeste 0 -- -- 90
2020-04-26 01:00:00 13.7 4 Noroeste 6 Noroeste 0 -- -- 89
2020-04-26 00:00:00 14.5 3 Noroeste 5 Noroeste 0 -- -- 90